Time;durP1;ratioP1;P1;durP2;ratioP2;P2;SDS_P1;SDS_P2;PMS_P1;PMS_P2;Temp;Humidity;BMP_temperature;BMP_pressure;BME280_temperature;BME280_humidity;BME280_pressure;Samples;Min_cycle;Max_cycle;Signal;HPM_P1;HPM_P2
2023/04/08 00:00:12;;;;;;;;;;;;;;;9.49;100.00;99732.59;5081297;28;19920;-81
2023/04/08 00:02:39;;;;;;;;;;;;;;;9.52;100.00;99738.44;5079334;28;19931;-80
2023/04/08 00:05:05;;;;;;;;;;;;;;;9.48;100.00;99738.84;5096636;28;19924;-81
2023/04/08 00:07:30;;;;;;;;;;;;;;;9.49;100.00;99737.88;5078223;28;19942;-82
2023/04/08 00:09:56;;;;;;;;;;;;;;;9.42;100.00;99738.38;5081205;28;19927;-81
2023/04/08 00:12:21;;;;;;;;;;;;;;;9.41;100.00;99747.28;5078606;28;20019;-82
2023/04/08 00:14:47;;;;;;;;;;;;;;;9.47;100.00;99745.09;5061788;28;19981;-82
2023/04/08 00:17:12;;;;;;;;;;;;;;;9.39;100.00;99746.56;5079151;28;19920;-83
2023/04/08 00:19:37;;;;;;;;;;;;;;;9.41;100.00;99751.72;5079013;28;19929;-82
2023/04/08 00:22:02;;;;;;;;;;;;;;;9.38;100.00;99744.88;5080908;28;19924;-82
2023/04/08 00:24:28;;;;;;;;;;;;;;;9.39;100.00;99743.94;5043412;28;19920;-83
2023/04/08 00:26:53;;;;;;;;;;;;;;;9.43;100.00;99749.75;5080848;28;20406;-81
2023/04/08 00:29:19;;;;;;;;;;;;;;;9.43;100.00;99744.50;5060902;28;19936;-81
2023/04/08 00:31:44;;;;;;;;;;;;;;;9.44;100.00;99754.91;5080599;28;19925;-81
2023/04/08 00:34:10;;;;;;;;;;;;;;;9.45;100.00;99743.41;5079581;28;20363;-81
2023/04/08 00:36:35;;;;;;;;;;;;;;;9.47;100.00;99747.72;5081543;28;20370;-82
2023/04/08 00:39:04;;;;;;;;;;;;;;;9.39;100.00;99746.56;5099064;28;20303;-82
2023/04/08 00:41:29;;;;;;;;;;;;;;;9.41;100.00;99731.47;5063682;28;19920;-82
2023/04/08 00:43:55;;;;;;;;;;;;;;;9.41;100.00;99739.38;5084782;28;19944;-81
2023/04/08 00:46:20;;;;;;;;;;;;;;;9.42;100.00;99727.84;5081854;28;20007;-82
2023/04/08 00:48:46;;;;;;;;;;;;;;;9.38;100.00;99731.72;5083386;28;20024;-81
2023/04/08 00:51:11;;;;;;;;;;;;;;;9.38;100.00;99731.72;5084981;28;19942;-82
2023/04/08 00:53:37;;;;;;;;;;;;;;;9.30;100.00;99723.66;5083142;28;20397;-80
2023/04/08 00:56:02;;;;;;;;;;;;;;;9.23;100.00;99722.50;5081642;28;19924;-81
2023/04/08 00:58:29;;;;;;;;;;;;;;;9.25;100.00;99730.25;5098117;28;19930;-80
2023/04/08 01:01:02;;;;;;;;;;;;;;;9.17;100.00;99723.03;5064488;28;20384;-81
2023/04/08 01:03:27;;;;;;;;;;;;;;;9.08;100.00;99723.78;5082733;28;20383;-82
2023/04/08 01:06:03;;;;;;;;;;;;;;;9.05;100.00;99731.94;5066693;28;19978;-81
2023/04/08 01:08:30;;;;;;;;;;;;;;;9.10;100.00;99724.50;5093802;28;20296;-80
2023/04/08 01:10:57;;;;;;;;;;;;;;;9.06;100.00;99724.88;5085228;28;19983;-82
2023/04/08 01:13:25;;;;;;;;;;;;;;;9.02;100.00;99732.19;5085100;28;20280;-83
2023/04/08 01:15:51;;;;;;;;;;;;;;;9.03;100.00;99731.22;5081822;28;19967;-82
2023/04/08 01:18:17;;;;;;;;;;;;;;;9.03;100.00;99720.72;5083917;28;20316;-83
2023/04/08 01:20:43;;;;;;;;;;;;;;;9.03;100.00;99725.97;5082372;28;19996;-83
2023/04/08 01:23:08;;;;;;;;;;;;;;;9.11;100.00;99718.28;5064764;28;20372;-83
2023/04/08 01:25:36;;;;;;;;;;;;;;;9.10;100.00;99721.03;5084662;28;20459;-81
2023/04/08 01:28:10;;;;;;;;;;;;;;;9.08;100.00;99718.50;5084206;28;20276;-82
2023/04/08 01:30:37;;;;;;;;;;;;;;;9.04;100.00;99722.38;5069315;28;19963;-82
2023/04/08 01:33:04;;;;;;;;;;;;;;;9.02;100.00;99726.94;5063168;28;20327;-83
2023/04/08 01:35:30;;;;;;;;;;;;;;;9.00;100.00;99726.25;5082785;28;19920;-83
2023/04/08 01:37:56;;;;;;;;;;;;;;;8.97;100.00;99721.22;5080434;28;20402;-82
2023/04/08 01:40:22;;;;;;;;;;;;;;;8.70;100.00;99723.53;5096030;28;20004;-81
2023/04/08 01:42:48;;;;;;;;;;;;;;;8.53;100.00;99717.88;5085204;28;20049;-82
2023/04/08 01:45:15;;;;;;;;;;;;;;;8.35;100.00;99714.09;5083189;28;19927;-83
2023/04/08 01:47:40;;;;;;;;;;;;;;;8.20;100.00;99720.56;5064299;28;19943;-83
2023/04/08 01:50:08;;;;;;;;;;;;;;;8.11;100.00;99716.88;5081707;28;20379;-83
2023/04/08 01:52:34;;;;;;;;;;;;;;;7.97;100.00;99714.50;5098544;28;20391;-83
2023/04/08 01:54:59;;;;;;;;;;;;;;;7.86;100.00;99714.53;5079937;28;20435;-81
2023/04/08 01:57:27;;;;;;;;;;;;;;;7.79;100.00;99711.56;5083785;28;19920;-82
2023/04/08 01:59:56;;;;;;;;;;;;;;;7.72;100.00;99720.88;5064873;28;20030;-82
2023/04/08 02:02:23;;;;;;;;;;;;;;;7.77;100.00;99718.75;5061995;28;20391;-82
2023/04/08 02:04:48;;;;;;;;;;;;;;;7.77;100.00;99716.13;5064601;28;19928;-82
2023/04/08 02:07:14;;;;;;;;;;;;;;;7.79;100.00;99715.97;5081253;28;19966;-82
2023/04/08 02:09:41;;;;;;;;;;;;;;;7.84;100.00;99719.06;5080994;28;20349;-81
2023/04/08 02:12:07;;;;;;;;;;;;;;;7.94;100.00;99722.66;5082629;28;19963;-81
2023/04/08 02:14:32;;;;;;;;;;;;;;;7.97;100.00;99719.78;5062369;28;19982;-83
2023/04/08 02:17:06;;;;;;;;;;;;;;;8.03;100.00;99715.81;5065623;28;19977;-81
2023/04/08 02:19:36;;;;;;;;;;;;;;;7.98;100.00;99716.19;5080474;28;20387;-81
2023/04/08 02:22:05;;;;;;;;;;;;;;;7.96;100.00;99719.88;5097856;28;19920;-81
2023/04/08 02:24:33;;;;;;;;;;;;;;;8.01;100.00;99718.56;5080072;28;19924;-81
2023/04/08 02:26:59;;;;;;;;;;;;;;;8.02;100.00;99722.88;5082202;28;19923;-81
2023/04/08 02:29:26;;;;;;;;;;;;;;;8.06;100.00;99718.22;5065802;28;20295;-81
2023/04/08 02:31:53;;;;;;;;;;;;;;;8.05;100.00;99719.16;5065464;28;19927;-80
2023/04/08 02:34:20;;;;;;;;;;;;;;;7.99;100.00;99723.13;5063331;28;19929;-83
2023/04/08 02:36:46;;;;;;;;;;;;;;;8.01;100.00;99720.38;5068061;28;19987;-82
2023/04/08 02:39:12;;;;;;;;;;;;;;;8.02;100.00;99728.13;5068969;28;19926;-81
2023/04/08 02:41:37;;;;;;;;;;;;;;;8.05;100.00;99732.31;5081076;28;20015;-82
2023/04/08 02:44:03;;;;;;;;;;;;;;;8.06;100.00;99733.97;5083176;28;19932;-81
2023/04/08 02:46:29;;;;;;;;;;;;;;;8.03;100.00;99731.59;5065167;28;19965;-83
2023/04/08 02:48:54;;;;;;;;;;;;;;;8.04;100.00;99730.63;5079523;28;20597;-82
2023/04/08 02:51:19;;;;;;;;;;;;;;;8.04;100.00;99726.22;5064492;28;20292;-82
2023/04/08 02:53:45;;;;;;;;;;;;;;;8.05;100.00;99733.16;5061567;28;19920;-81
2023/04/08 02:56:11;;;;;;;;;;;;;;;8.04;100.00;99733.25;5081083;28;19927;-83
2023/04/08 02:58:36;;;;;;;;;;;;;;;8.01;100.00;99736.16;5081344;28;19920;-84
2023/04/08 03:01:02;;;;;;;;;;;;;;;7.94;100.00;99729.69;5083864;28;19927;-83
2023/04/08 03:03:28;;;;;;;;;;;;;;;7.89;100.00;99731.88;5079514;28;19943;-81
2023/04/08 03:05:56;;;;;;;;;;;;;;;7.82;100.00;99723.63;5078629;28;20007;-81
2023/04/08 03:08:21;;;;;;;;;;;;;;;7.72;100.00;99726.13;5081562;28;19966;-82
2023/04/08 03:10:48;;;;;;;;;;;;;;;7.60;100.00;99723.66;5078893;28;19955;-81
2023/04/08 03:13:13;;;;;;;;;;;;;;;7.46;100.00;99724.72;5080906;28;19966;-83
2023/04/08 03:15:40;;;;;;;;;;;;;;;7.49;100.00;99727.09;5080798;28;19920;-84
2023/04/08 03:18:05;;;;;;;;;;;;;;;7.38;100.00;99732.34;5062211;28;20420;-84
2023/04/08 03:20:31;;;;;;;;;;;;;;;7.31;100.00;99728.50;5097860;28;19947;-84
2023/04/08 03:22:56;;;;;;;;;;;;;;;7.23;100.00;99723.03;5079056;28;19920;-84
2023/04/08 03:25:23;;;;;;;;;;;;;;;7.19;100.00;99721.56;5082283;28;20406;-85
2023/04/08 03:27:48;;;;;;;;;;;;;;;7.20;100.00;99723.25;5079306;28;19928;-83
2023/04/08 03:30:13;;;;;;;;;;;;;;;7.19;100.00;99721.56;5082721;28;20010;-84
2023/04/08 03:32:39;;;;;;;;;;;;;;;7.14;100.00;99724.56;5078426;28;19920;-84
2023/04/08 03:35:05;;;;;;;;;;;;;;;7.09;100.00;99717.97;5079774;28;19928;-85
2023/04/08 03:37:30;;;;;;;;;;;;;;;6.83;100.00;99723.41;5082022;28;20445;-82
2023/04/08 03:39:56;;;;;;;;;;;;;;;6.59;100.00;99722.63;5078012;28;19924;-82
2023/04/08 03:42:21;;;;;;;;;;;;;;;6.63;100.00;99717.97;5081472;28;20011;-82
2023/04/08 03:44:47;;;;;;;;;;;;;;;6.52;100.00;99716.16;5078991;28;20014;-82
2023/04/08 03:47:12;;;;;;;;;;;;;;;6.48;100.00;99714.72;5061863;28;20055;-82
2023/04/08 03:49:37;;;;;;;;;;;;;;;6.42;100.00;99721.22;5080535;28;20048;-83
2023/04/08 03:52:03;;;;;;;;;;;;;;;6.29;100.00;99717.84;5079240;28;19920;-82
2023/04/08 03:54:28;;;;;;;;;;;;;;;6.33;100.00;99721.91;5081386;28;20233;-81
2023/04/08 03:56:54;;;;;;;;;;;;;;;6.25;100.00;99726.03;5077509;28;19936;-82
2023/04/08 03:59:19;;;;;;;;;;;;;;;6.22;100.00;99728.88;5080893;28;19927;-82
2023/04/08 04:01:45;;;;;;;;;;;;;;;6.33;100.00;99723.69;5079065;28;19920;-81
2023/04/08 04:04:10;;;;;;;;;;;;;;;6.36;100.00;99723.50;5079496;28;19926;-82
2023/04/08 04:06:36;;;;;;;;;;;;;;;6.39;100.00;99725.88;5069827;28;19920;-82
2023/04/08 04:09:02;;;;;;;;;;;;;;;6.41;100.00;99727.44;5081454;28;20293;-82
2023/04/08 04:11:27;;;;;;;;;;;;;;;6.49;100.00;99722.44;5081831;28;19921;-82
2023/04/08 04:13:52;;;;;;;;;;;;;;;6.46;100.00;99727.94;5081408;28;20060;-81
2023/04/08 04:16:18;;;;;;;;;;;;;;;6.42;100.00;99725.66;5082169;28;19972;-81
2023/04/08 04:18:43;;;;;;;;;;;;;;;6.30;100.00;99726.56;5083720;28;19916;-82
2023/04/08 04:21:09;;;;;;;;;;;;;;;6.06;100.00;99730.00;5084290;28;20344;-82
2023/04/08 04:23:34;;;;;;;;;;;;;;;5.78;100.00;99723.22;5082579;28;19928;-84
2023/04/08 04:26:00;;;;;;;;;;;;;;;5.62;100.00;99729.63;5081009;28;20000;-82
2023/04/08 04:28:25;;;;;;;;;;;;;;;5.57;100.00;99726.50;5081951;28;19979;-81
2023/04/08 04:30:51;;;;;;;;;;;;;;;5.54;100.00;99722.31;5081788;28;19966;-81
2023/04/08 04:33:16;;;;;;;;;;;;;;;5.50;100.00;99725.25;5083613;28;19920;-82
2023/04/08 04:35:42;;;;;;;;;;;;;;;5.50;100.00;99725.25;5082369;28;20295;-83
2023/04/08 04:38:11;;;;;;;;;;;;;;;5.53;100.00;99730.28;5083092;28;19959;-81
2023/04/08 04:40:37;;;;;;;;;;;;;;;5.63;100.00;99736.56;5083108;28;19923;-83
2023/04/08 04:43:02;;;;;;;;;;;;;;;5.74;100.00;99734.03;5081922;28;20023;-90
2023/04/08 04:45:28;;;;;;;;;;;;;;;5.84;100.00;99729.78;5086681;28;19916;-82
2023/04/08 04:47:53;;;;;;;;;;;;;;;5.96;100.00;99733.34;5082915;28;19943;-85
2023/04/08 04:50:18;;;;;;;;;;;;;;;5.99;100.00;99734.00;5085592;28;19924;-85
2023/04/08 04:52:44;;;;;;;;;;;;;;;6.00;100.00;99740.91;5082659;28;20019;-87
2023/04/08 04:55:09;;;;;;;;;;;;;;;6.09;100.00;99740.25;5083537;28;19920;-82
2023/04/08 04:57:35;;;;;;;;;;;;;;;6.11;100.00;99738.34;5086280;28;20050;-82
2023/04/08 05:00:02;;;;;;;;;;;;;;;6.20;100.00;99741.25;5091635;28;19934;-82
2023/04/08 05:02:28;;;;;;;;;;;;;;;6.20;100.00;99738.63;5084507;28;19927;-81
2023/04/08 05:04:54;;;;;;;;;;;;;;;6.17;100.00;99742.31;5080906;28;20011;-82
2023/04/08 05:07:20;;;;;;;;;;;;;;;6.10;100.00;99741.91;5086109;28;19927;-82
2023/04/08 05:09:46;;;;;;;;;;;;;;;6.08;100.00;99737.72;5089352;28;19920;-82
2023/04/08 05:12:11;;;;;;;;;;;;;;;6.12;100.00;99744.44;5088504;28;19954;-82
2023/04/08 05:14:37;;;;;;;;;;;;;;;6.13;100.00;99746.94;5083615;28;19931;-82
2023/04/08 05:17:02;;;;;;;;;;;;;;;6.13;100.00;99746.94;5063118;28;20478;-82
2023/04/08 05:19:29;;;;;;;;;;;;;;;6.05;100.00;99753.69;5083959;28;19920;-82
2023/04/08 05:21:54;;;;;;;;;;;;;;;6.05;100.00;99753.69;5061844;28;19932;-82
2023/04/08 05:24:19;;;;;;;;;;;;;;;6.05;100.00;99754.53;5084572;28;20018;-82
2023/04/08 05:26:46;;;;;;;;;;;;;;;6.07;100.00;99757.84;5082315;28;19920;-82
2023/04/08 05:29:12;;;;;;;;;;;;;;;6.06;100.00;99756.19;5081572;28;19920;-82
2023/04/08 05:31:37;;;;;;;;;;;;;;;6.09;100.00;99766.44;5083911;28;20027;-81
2023/04/08 05:34:02;;;;;;;;;;;;;;;6.09;100.00;99761.19;5064679;28;19924;-82
2023/04/08 05:36:28;;;;;;;;;;;;;;;6.03;100.00;99756.41;5080140;28;19921;-82
2023/04/08 05:38:53;;;;;;;;;;;;;;;6.07;100.00;99752.59;5083134;28;19970;-82
2023/04/08 05:41:18;;;;;;;;;;;;;;;6.18;100.00;99764.13;5080730;28;19928;-83
2023/04/08 05:43:44;;;;;;;;;;;;;;;6.08;100.00;99763.91;5082038;28;19953;-82
2023/04/08 05:46:10;;;;;;;;;;;;;;;6.00;100.00;99768.88;5064155;28;19963;-82
2023/04/08 05:48:35;;;;;;;;;;;;;;;6.06;100.00;99773.69;5062735;28;20356;-81
2023/04/08 05:51:00;;;;;;;;;;;;;;;6.01;100.00;99773.16;5083151;28;19920;-81
2023/04/08 05:53:26;;;;;;;;;;;;;;;6.12;100.00;99773.25;5080153;28;19920;-82
2023/04/08 05:55:51;;;;;;;;;;;;;;;6.23;100.00;99778.56;5082232;28;19919;-82
2023/04/08 05:58:17;;;;;;;;;;;;;;;6.27;100.00;99777.38;5080821;28;19924;-82
2023/04/08 06:00:42;;;;;;;;;;;;;;;6.37;100.00;99780.19;5085386;28;19916;-82
2023/04/08 06:03:07;;;;;;;;;;;;;;;6.41;100.00;99781.66;5080505;28;19921;-82
2023/04/08 06:05:33;;;;;;;;;;;;;;;6.51;100.00;99778.25;5081875;28;19921;-82
2023/04/08 06:07:58;;;;;;;;;;;;;;;6.54;100.00;99777.16;5079144;28;20382;-82
2023/04/08 06:10:23;;;;;;;;;;;;;;;6.63;100.00;99778.28;5082595;28;20384;-82
2023/04/08 06:12:49;;;;;;;;;;;;;;;6.75;100.00;99791.34;5079571;28;20369;-82
2023/04/08 06:15:15;;;;;;;;;;;;;;;6.79;100.00;99798.03;5081623;28;19978;-82
2023/04/08 06:17:41;;;;;;;;;;;;;;;6.87;100.00;99790.44;5082230;28;20425;-82
2023/04/08 06:20:08;;;;;;;;;;;;;;;6.87;100.00;99787.81;5078602;28;19920;-81
2023/04/08 06:22:34;;;;;;;;;;;;;;;6.86;100.00;99788.75;5082105;28;19920;-82
2023/04/08 06:25:00;;;;;;;;;;;;;;;6.88;100.00;99792.13;5079397;28;19920;-81
2023/04/08 06:27:25;;;;;;;;;;;;;;;6.98;100.00;99792.25;5048297;28;19927;-81
2023/04/08 06:29:52;;;;;;;;;;;;;;;7.03;100.00;99786.66;5082222;28;19924;-82
2023/04/08 06:32:17;;;;;;;;;;;;;;;7.06;100.00;99783.81;5079447;28;19981;-83
2023/04/08 06:34:44;;;;;;;;;;;;;;;7.18;100.00;99783.75;5079774;28;19924;-82
2023/04/08 06:37:09;;;;;;;;;;;;;;;7.18;100.00;99785.53;5096461;28;20364;-83
2023/04/08 06:39:35;;;;;;;;;;;;;;;7.34;100.00;99789.50;5060876;28;19961;-82
2023/04/08 06:42:00;;;;;;;;;;;;;;;7.46;100.00;99795.59;5081854;28;19927;-81
2023/04/08 06:44:35;;;;;;;;;;;;;;;7.59;100.00;99787.63;5061609;28;20280;-82
2023/04/08 06:47:01;;;;;;;;;;;;;;;7.67;100.00;99786.06;5081910;28;19926;-80
2023/04/08 06:49:26;;;;;;;;;;;;;;;7.85;100.00;99794.31;5079030;28;19974;-83
2023/04/08 06:51:51;;;;;;;;;;;;;;;7.98;100.00;99799.44;5063248;28;20425;-82
2023/04/08 06:54:17;;;;;;;;;;;;;;;8.13;100.00;99798.22;5079009;28;20060;-83
2023/04/08 06:56:42;;;;;;;;;;;;;;;8.24;100.00;99790.34;5080180;28;19921;-83
2023/04/08 06:59:07;;;;;;;;;;;;;;;8.34;100.00;99804.47;5080831;28;19920;-82
2023/04/08 07:01:33;;;;;;;;;;;;;;;8.46;100.00;99803.47;5081076;28;19924;-82
2023/04/08 07:03:58;;;;;;;;;;;;;;;8.59;100.00;99801.53;5081521;28;19977;-81
2023/04/08 07:06:24;;;;;;;;;;;;;;;8.69;100.00;99811.28;5078281;28;20377;-81
2023/04/08 07:08:49;;;;;;;;;;;;;;;8.77;100.00;99815.00;5080655;28;20324;-81
2023/04/08 07:11:15;;;;;;;;;;;;;;;8.79;100.00;99817.47;5079782;28;20368;-82
2023/04/08 07:13:40;;;;;;;;;;;;;;;8.88;100.00;99814.09;5079569;28;19974;-82
2023/04/08 07:16:06;;;;;;;;;;;;;;;8.98;100.00;99812.38;5080996;28;20252;-82
2023/04/08 07:18:32;;;;;;;;;;;;;;;9.10;100.00;99814.00;5078799;28;19961;-82
2023/04/08 07:20:57;;;;;;;;;;;;;;;9.16;100.00;99805.59;5081298;28;19926;-81
2023/04/08 07:23:23;;;;;;;;;;;;;;;9.18;100.00;99806.31;5078431;28;20265;-81
2023/04/08 07:25:48;;;;;;;;;;;;;;;9.24;100.00;99808.44;5079922;28;19946;-82
2023/04/08 07:28:13;;;;;;;;;;;;;;;9.29;100.00;99806.25;5079594;28;19967;-83
2023/04/08 07:30:39;;;;;;;;;;;;;;;9.25;100.00;99804.81;5081261;28;19923;-83
2023/04/08 07:33:04;;;;;;;;;;;;;;;9.33;100.00;99807.66;5080654;28;19924;-83
2023/04/08 07:35:30;;;;;;;;;;;;;;;9.44;100.00;99810.22;5059378;28;19981;-82
2023/04/08 07:37:56;;;;;;;;;;;;;;;9.55;100.00;99811.94;5084573;28;20416;-82
2023/04/08 07:40:22;;;;;;;;;;;;;;;9.63;100.00;99809.50;5081025;28;19920;-83
2023/04/08 07:42:48;;;;;;;;;;;;;;;9.72;100.00;99813.16;5078514;28;19973;-83
2023/04/08 07:45:13;;;;;;;;;;;;;;;9.85;100.00;99811.13;5079874;28;19921;-83
2023/04/08 07:47:39;;;;;;;;;;;;;;;9.97;100.00;99812.72;5080451;28;19920;-81
2023/04/08 07:50:05;;;;;;;;;;;;;;;10.11;100.00;99819.44;5078406;28;19931;-82
2023/04/08 07:52:30;;;;;;;;;;;;;;;10.09;100.00;99816.06;5080924;28;20288;-82
2023/04/08 07:54:55;;;;;;;;;;;;;;;10.07;100.00;99818.84;5076949;28;19951;-82
2023/04/08 07:57:21;;;;;;;;;;;;;;;10.20;100.00;99819.47;5080876;28;19920;-82
2023/04/08 07:59:46;;;;;;;;;;;;;;;10.37;100.00;99819.84;5080839;28;19920;-83
2023/04/08 08:02:11;;;;;;;;;;;;;;;10.53;100.00;99825.41;5079582;28;19920;-82
2023/04/08 08:04:37;;;;;;;;;;;;;;;10.58;100.00;99818.75;5078661;28;19971;-82
2023/04/08 08:07:02;;;;;;;;;;;;;;;10.61;100.00;99829.03;5080357;28;20010;-82
2023/04/08 08:09:27;;;;;;;;;;;;;;;10.73;100.00;99824.47;5077169;28;20292;-81
2023/04/08 08:11:53;;;;;;;;;;;;;;;10.86;100.00;99822.41;5080426;28;20026;-81
2023/04/08 08:14:18;;;;;;;;;;;;;;;10.91;100.00;99819.34;5078366;28;19926;-82
2023/04/08 08:16:44;;;;;;;;;;;;;;;10.94;100.00;99825.19;5079144;28;20026;-82
2023/04/08 08:19:11;;;;;;;;;;;;;;;10.97;100.00;99824.91;5079767;28;19952;-81
2023/04/08 08:21:36;;;;;;;;;;;;;;;11.09;100.00;99822.94;5077828;28;19978;-82
2023/04/08 08:24:02;;;;;;;;;;;;;;;11.12;100.00;99827.13;5079875;28;20022;-82
2023/04/08 08:26:27;;;;;;;;;;;;;;;11.15;100.00;99829.47;5077311;28;20008;-83
2023/04/08 08:28:53;;;;;;;;;;;;;;;11.20;100.00;99824.59;5080382;28;19920;-81
2023/04/08 08:31:18;;;;;;;;;;;;;;;11.27;100.00;99825.72;5080342;28;20439;-83
2023/04/08 08:33:44;;;;;;;;;;;;;;;11.17;100.00;99824.91;5061179;28;20410;-83
2023/04/08 08:36:09;;;;;;;;;;;;;;;11.28;100.00;99832.69;5080223;28;19920;-83
2023/04/08 08:38:35;;;;;;;;;;;;;;;11.41;100.00;99834.06;5078338;28;20387;-82
2023/04/08 08:41:00;;;;;;;;;;;;;;;11.49;100.00;99830.69;5096025;28;20228;-83
2023/04/08 08:43:27;;;;;;;;;;;;;;;11.45;100.00;99835.44;5059062;28;20402;-83
2023/04/08 08:45:53;;;;;;;;;;;;;;;11.44;100.00;99838.22;5080287;28;19926;-82
2023/04/08 08:48:19;;;;;;;;;;;;;;;11.48;100.00;99837.81;5078127;28;19920;-82
2023/04/08 08:50:45;;;;;;;;;;;;;;;11.74;100.00;99838.06;5078792;28;20019;-82
2023/04/08 08:53:10;;;;;;;;;;;;;;;11.93;100.00;99837.16;5079195;28;20403;-82
2023/04/08 08:55:38;;;;;;;;;;;;;;;11.92;100.00;99837.31;5077369;28;19971;-82
2023/04/08 08:58:04;;;;;;;;;;;;;;;12.01;100.00;99831.16;5065541;28;20362;-82
2023/04/08 09:00:33;;;;;;;;;;;;;;;11.82;100.00;99832.88;5082854;28;19999;-82
2023/04/08 09:03:16;;;;;;;;;;;;;;;12.03;100.00;99824.72;5084281;28;19924;-82
2023/04/08 09:05:51;;;;;;;;;;;;;;;12.22;100.00;99826.47;5081915;28;19916;-82
2023/04/08 09:08:24;;;;;;;;;;;;;;;12.33;100.00;99831.56;5063318;28;19920;-82
2023/04/08 09:10:49;;;;;;;;;;;;;;;12.41;100.00;99822.88;5082230;28;19946;-83
2023/04/08 09:13:15;;;;;;;;;;;;;;;12.45;100.00;99827.72;5081599;28;20364;-82
2023/04/08 09:16:02;;;;;;;;;;;;;;;12.44;93.98;99822.56;5081617;28;20386;-82
2023/04/08 09:18:27;;;;;;;;;;;;;;;12.46;93.23;99823.28;5084334;28;19927;-82
2023/04/08 09:20:53;;;;;;;;;;;;;;;12.47;90.27;99817.84;5080299;28;19921;-81
2023/04/08 09:23:18;;;;;;;;;;;;;;;12.60;90.47;99820.13;5064903;28;19927;-83
2023/04/08 09:25:44;;;;;;;;;;;;;;;12.71;90.19;99818.09;5080570;28;19920;-82
2023/04/08 09:28:22;;;;;;;;;;;;;;;12.85;90.91;99815.91;5081341;28;19943;-82
2023/04/08 09:30:47;;;;;;;;;;;;;;;12.89;88.85;99815.47;5083174;28;20015;-82
2023/04/08 09:33:12;;;;;;;;;;;;;;;12.99;89.95;99818.03;5081499;28;20016;-81
2023/04/08 09:35:38;;;;;;;;;;;;;;;13.11;90.91;99808.88;5062543;28;19936;-82
2023/04/08 09:38:03;;;;;;;;;;;;;;;13.06;90.04;99808.50;5083005;28;19920;-82
2023/04/08 09:40:32;;;;;;;;;;;;;;;13.24;89.35;99806.69;5079560;28;19924;-81
2023/04/08 09:43:01;;;;;;;;;;;;;;;13.30;93.50;99808.72;5083283;28;19926;-81
2023/04/08 09:45:27;;;;;;;;;;;;;;;13.43;94.92;99811.00;5083510;28;19943;-82
2023/04/08 09:47:58;;;;;;;;;;;;;;;13.51;94.97;99803.91;5079718;28;19924;-81
2023/04/08 09:50:26;;;;;;;;;;;;;;;13.58;95.78;99803.28;5064897;28;19963;-82
2023/04/08 09:52:56;;;;;;;;;;;;;;;13.66;95.89;99806.00;5079713;28;19924;-82
2023/04/08 09:55:22;;;;;;;;;;;;;;;13.66;92.96;99801.53;5082003;28;19960;-80
2023/04/08 09:58:07;;;;;;;;;;;;;;;13.75;90.61;99797.94;5083964;28;19931;-81
2023/04/08 10:00:42;;;;;;;;;;;;;;;13.81;85.77;99793.81;5087166;28;19967;-83
2023/04/08 10:03:10;;;;;;;;;;;;;;;13.79;87.66;99795.78;5084113;28;19921;-82
2023/04/08 10:05:36;;;;;;;;;;;;;;;13.88;91.89;99789.53;5065618;28;20022;-82
2023/04/08 10:08:02;;;;;;;;;;;;;;;14.02;94.71;99785.47;5082831;28;19924;-81
2023/04/08 10:10:28;;;;;;;;;;;;;;;14.11;92.50;99789.81;5097746;28;19920;-82
2023/04/08 10:12:53;;;;;;;;;;;;;;;14.14;87.78;99795.63;5068013;28;20052;-82
2023/04/08 10:15:29;;;;;;;;;;;;;;;14.12;84.99;99792.31;5065951;28;19921;-82
2023/04/08 10:18:17;;;;;;;;;;;;;;;14.17;83.13;99784.69;5082900;28;20345;-82
2023/04/08 10:20:43;;;;;;;;;;;;;;;14.20;79.87;99784.38;5066386;28;19962;-82
2023/04/08 10:23:13;;;;;;;;;;;;;;;14.24;77.78;99784.91;5082609;28;19920;-84
2023/04/08 10:25:40;;;;;;;;;;;;;;;14.16;73.07;99793.66;5085329;28;19920;-81
2023/04/08 10:28:11;;;;;;;;;;;;;;;14.15;71.30;99791.97;5082487;28;19927;-82
2023/04/08 10:30:36;;;;;;;;;;;;;;;14.23;74.45;99784.06;5088440;28;20244;-83
2023/04/08 10:33:08;;;;;;;;;;;;;;;14.32;74.36;99782.25;5082206;28;19920;-83
2023/04/08 10:35:35;;;;;;;;;;;;;;;14.42;72.85;99787.47;5065901;28;19924;-82
2023/04/08 10:38:01;;;;;;;;;;;;;;;14.37;70.37;99784.44;5065010;28;19924;-82
2023/04/08 10:40:26;;;;;;;;;;;;;;;14.43;70.44;99778.53;5078783;28;19920;-83
2023/04/08 10:42:58;;;;;;;;;;;;;;;14.41;69.25;99769.88;5081872;28;19930;-81
2023/04/08 10:45:24;;;;;;;;;;;;;;;14.49;69.03;99772.56;5079240;28;19921;-82
2023/04/08 10:47:50;;;;;;;;;;;;;;;14.53;66.70;99765.94;5082864;28;20372;-82
2023/04/08 10:50:16;;;;;;;;;;;;;;;14.41;63.81;99769.88;5064947;28;19920;-83
2023/04/08 10:52:46;;;;;;;;;;;;;;;14.42;63.30;99769.72;5081730;28;19920;-81
2023/04/08 10:55:11;;;;;;;;;;;;;;;14.43;63.60;99759.94;5081672;28;19920;-83
2023/04/08 10:57:39;;;;;;;;;;;;;;;14.39;64.26;99756.75;5086592;28;20392;-83
2023/04/08 11:00:05;;;;;;;;;;;;;;;14.46;65.36;99759.59;5092288;28;19938;-82
2023/04/08 11:02:32;;;;;;;;;;;;;;;14.50;65.10;99752.97;5077258;28;19920;-82
2023/04/08 11:04:57;;;;;;;;;;;;;;;14.52;66.70;99750.97;5106698;28;19953;-82
2023/04/08 11:07:24;;;;;;;;;;;;;;;14.52;67.72;99745.66;5102750;28;20380;-82
2023/04/08 11:09:49;;;;;;;;;;;;;;;14.56;67.19;99747.00;5077861;28;19936;-82
2023/04/08 11:12:17;;;;;;;;;;;;;;;14.61;67.62;99744.69;5080443;28;19926;-82
2023/04/08 11:14:43;;;;;;;;;;;;;;;14.68;67.30;99738.56;5082126;28;19921;-81
2023/04/08 11:17:09;;;;;;;;;;;;;;;14.76;67.33;99732.44;5084593;28;19964;-81
2023/04/08 11:19:38;;;;;;;;;;;;;;;14.86;66.60;99737.56;5082623;28;19919;-83
2023/04/08 11:22:04;;;;;;;;;;;;;;;14.85;64.21;99736.72;5079655;28;19920;-83
2023/04/08 11:24:29;;;;;;;;;;;;;;;14.89;64.69;99722.16;5082697;28;19920;-84
2023/04/08 11:26:56;;;;;;;;;;;;;;;14.96;66.42;99728.44;5078277;28;19925;-82
2023/04/08 11:29:22;;;;;;;;;;;;;;;15.04;66.19;99720.47;5081224;28;19932;-83
2023/04/08 11:31:48;;;;;;;;;;;;;;;15.10;65.74;99719.78;5078624;28;19943;-83
2023/04/08 11:34:20;;;;;;;;;;;;;;;15.24;65.87;99709.47;5080044;28;19932;-82
2023/04/08 11:36:46;;;;;;;;;;;;;;;15.36;65.63;99708.13;5078850;28;19924;-83
2023/04/08 11:39:11;;;;;;;;;;;;;;;15.42;63.85;99707.47;5079665;28;20015;-82
2023/04/08 11:41:38;;;;;;;;;;;;;;;15.47;57.14;99707.78;5081271;28;19924;-83
2023/04/08 11:44:05;;;;;;;;;;;;;;;15.57;58.20;99705.78;5081034;28;20458;-83
2023/04/08 11:46:31;;;;;;;;;;;;;;;15.68;57.29;99708.06;5060286;28;19924;-83
2023/04/08 11:49:06;;;;;;;;;;;;;;;15.77;53.31;99704.38;5081107;28;20366;-81
2023/04/08 11:51:33;;;;;;;;;;;;;;;15.86;52.74;99695.34;5082017;28;19927;-82
2023/04/08 11:53:59;;;;;;;;;;;;;;;15.95;52.02;99693.50;5077803;28;19950;-82
2023/04/08 11:56:24;;;;;;;;;;;;;;;16.10;51.56;99691.75;5077823;28;19946;-82
2023/04/08 11:58:50;;;;;;;;;;;;;;;16.18;49.69;99682.91;5062473;28;19978;-82
2023/04/08 12:01:16;;;;;;;;;;;;;;;16.34;47.91;99693.44;5063756;28;19968;-82
2023/04/08 12:03:54;;;;;;;;;;;;;;;16.47;45.24;99683.03;5079242;28;20303;-82
2023/04/08 12:06:20;;;;;;;;;;;;;;;16.54;44.54;99673.34;5078699;28;19962;-82
2023/04/08 12:08:45;;;;;;;;;;;;;;;16.71;43.15;99680.22;5080034;28;19920;-82
2023/04/08 12:11:14;;;;;;;;;;;;;;;16.85;43.26;99665.25;5080197;28;20321;-82
2023/04/08 12:13:40;;;;;;;;;;;;;;;16.94;41.06;99668.69;5080325;28;20288;-82
2023/04/08 12:16:05;;;;;;;;;;;;;;;17.06;39.68;99672.59;5063443;28;19920;-82
2023/04/08 12:18:31;;;;;;;;;;;;;;;17.10;39.47;99665.88;5083978;28;19928;-83
2023/04/08 12:20:56;;;;;;;;;;;;;;;17.17;38.62;99666.81;5062919;28;20380;-83
2023/04/08 12:23:22;;;;;;;;;;;;;;;17.18;38.05;99663.13;5078412;28;19945;-82
2023/04/08 12:25:47;;;;;;;;;;;;;;;17.18;38.40;99652.47;5079818;28;19921;-82
2023/04/08 12:28:12;;;;;;;;;;;;;;;17.22;38.41;99661.75;5080028;28;19926;-82
2023/04/08 12:30:38;;;;;;;;;;;;;;;17.21;37.94;99660.09;5081061;28;20398;-82
2023/04/08 12:33:03;;;;;;;;;;;;;;;17.30;38.79;99664.34;5066085;28;19920;-82
2023/04/08 12:35:28;;;;;;;;;;;;;;;17.40;38.45;99648.88;5081391;28;19956;-83
2023/04/08 12:37:54;;;;;;;;;;;;;;;17.56;38.39;99647.84;5084921;28;20018;-82
2023/04/08 12:40:21;;;;;;;;;;;;;;;17.72;38.83;99646.88;5081636;28;20208;-82